createdAt,value
2022-11-07T00:01:47.338Z,80.40
2022-11-07T00:04:15.160Z,79.20
2022-11-07T00:06:42.621Z,79.60
2022-11-07T00:09:09.481Z,79.70
2022-11-07T00:11:36.286Z,80.00
2022-11-07T00:14:03.188Z,80.20
2022-11-07T00:16:30.655Z,79.90
2022-11-07T00:18:57.465Z,79.90
2022-11-07T00:21:24.437Z,80.20
2022-11-07T00:23:51.247Z,79.80
2022-11-07T00:26:18.137Z,80.00
2022-11-07T00:28:45.679Z,80.00
2022-11-07T00:31:14.880Z,79.70
2022-11-07T00:33:43.522Z,79.10
2022-11-07T00:36:21.371Z,78.70
2022-11-07T00:38:48.574Z,78.50
2022-11-07T00:41:15.988Z,78.60
2022-11-07T00:43:42.975Z,78.70
2022-11-07T00:46:11.967Z,78.80
2022-11-07T00:48:39.012Z,78.60
2022-11-07T00:51:22.486Z,79.40
2022-11-07T00:53:49.699Z,76.80
2022-11-07T00:56:21.865Z,79.70
2022-11-07T00:58:48.894Z,79.50
2022-11-07T01:01:26.365Z,79.70
2022-11-07T01:04:12.742Z,79.00
2022-11-07T01:06:41.976Z,79.30
2022-11-07T01:09:11.873Z,80.00
2022-11-07T01:11:40.329Z,79.70
2022-11-07T01:14:08.833Z,79.70
2022-11-07T01:16:35.781Z,80.10
2022-11-07T01:19:03.923Z,80.20
2022-11-07T01:21:31.408Z,80.00
2022-11-07T01:24:00.282Z,80.50
2022-11-07T01:26:27.667Z,80.60
2022-11-07T01:28:54.472Z,79.80
2022-11-07T01:31:21.462Z,79.90
2022-11-07T01:33:48.256Z,80.30
2022-11-07T01:36:17.829Z,80.70
2022-11-07T01:38:51.046Z,80.00
2022-11-07T01:41:27.483Z,79.20
2022-11-07T01:44:08.140Z,76.60
2022-11-07T01:46:42.861Z,76.90
2022-11-07T01:49:23.470Z,80.40
2022-11-07T01:52:16.988Z,80.20
2022-11-07T01:55:17.680Z,73.40
2022-11-07T01:57:57.666Z,76.60
2022-11-07T02:00:26.031Z,75.30
2022-11-07T02:03:01.550Z,79.00
2022-11-07T02:05:45.034Z,77.40
2022-11-07T02:08:15.193Z,77.30
2022-11-07T02:10:43.895Z,78.30
2022-11-07T02:13:18.290Z,79.10
2022-11-07T02:15:45.213Z,78.70
2022-11-07T02:18:12.287Z,79.70
2022-11-07T02:20:39.115Z,79.20
2022-11-07T02:23:19.673Z,79.20
2022-11-07T02:25:47.088Z,73.00
2022-11-07T02:28:15.401Z,79.00
2022-11-07T02:30:42.210Z,78.70
2022-11-07T02:33:29.248Z,79.00
2022-11-07T02:35:56.152Z,68.00
2022-11-07T02:38:32.137Z,78.60
2022-11-07T02:41:06.822Z,78.10
2022-11-07T02:43:39.008Z,77.50
2022-11-07T02:46:10.045Z,77.90
2022-11-07T02:49:03.478Z,77.00
2022-11-07T02:51:30.332Z,70.30
2022-11-07T02:53:57.395Z,78.10
2022-11-07T02:56:25.205Z,78.40
2022-11-07T02:58:55.027Z,78.20
2022-11-07T03:01:23.113Z,78.50
2022-11-07T03:03:51.808Z,78.50
2022-11-07T03:06:23.569Z,77.90
2022-11-07T03:08:51.168Z,77.60
2022-11-07T03:11:21.312Z,78.00
2022-11-07T03:13:50.213Z,78.50
2022-11-07T03:16:19.210Z,77.90
2022-11-07T03:18:46.054Z,77.80
2022-11-07T03:21:12.986Z,77.80
2022-11-07T03:23:39.946Z,77.60
2022-11-07T03:26:06.886Z,78.10
2022-11-07T03:28:34.954Z,78.50
2022-11-07T03:31:03.835Z,78.00
2022-11-07T03:33:31.176Z,78.60
2022-11-07T03:35:58.116Z,79.00
2022-11-07T03:38:25.010Z,79.20
2022-11-07T03:40:51.947Z,79.00
2022-11-07T03:43:18.757Z,78.80
2022-11-07T03:45:45.540Z,78.90
2022-11-07T03:48:12.359Z,78.90
2022-11-07T03:50:41.877Z,78.80
2022-11-07T03:53:08.685Z,78.70
2022-11-07T03:55:35.491Z,78.70
2022-11-07T03:58:02.365Z,78.50
2022-11-07T04:00:29.277Z,78.70
2022-11-07T04:02:56.214Z,78.70
2022-11-07T04:05:23.061Z,78.50
2022-11-07T04:07:49.827Z,78.50
2022-11-07T04:10:16.733Z,78.40
2022-11-07T04:13:03.061Z,78.40
2022-11-07T04:15:48.334Z,78.30
2022-11-07T04:18:15.140Z,78.70
2022-11-07T04:20:42.147Z,78.70
2022-11-07T04:23:09.069Z,78.70
2022-11-07T04:25:54.415Z,79.10
2022-11-07T04:28:21.197Z,79.10
2022-11-07T04:30:48.082Z,79.10
2022-11-07T04:33:15.184Z,79.00
2022-11-07T04:35:42.237Z,78.80
2022-11-07T04:38:09.088Z,78.70
2022-11-07T04:40:35.947Z,78.70
2022-11-07T04:43:08.924Z,78.70
2022-11-07T04:45:39.343Z,78.80
2022-11-07T04:48:06.741Z,77.80
2022-11-07T04:50:33.768Z,78.70
2022-11-07T04:53:00.582Z,78.60
2022-11-07T04:55:30.680Z,78.50
2022-11-07T04:57:57.815Z,78.30
2022-11-07T05:00:25.310Z,78.30
2022-11-07T05:02:52.748Z,78.20
2022-11-07T05:05:20.164Z,78.30
2022-11-07T05:07:48.140Z,78.20
2022-11-07T05:10:28.405Z,78.50
2022-11-07T05:12:56.634Z,77.20
2022-11-07T05:15:24.283Z,79.10
2022-11-07T05:17:51.246Z,79.00
2022-11-07T05:20:29.593Z,79.10
2022-11-07T05:23:13.523Z,76.30
2022-11-07T05:25:58.654Z,79.10
2022-11-07T05:28:36.968Z,74.90
2022-11-07T05:31:07.459Z,79.10
2022-11-07T05:33:35.231Z,79.30
2022-11-07T05:36:11.197Z,79.40
2022-11-07T05:38:40.643Z,76.90
2022-11-07T05:41:07.436Z,79.60
2022-11-07T05:43:34.385Z,79.70
2022-11-07T05:46:02.102Z,79.50
2022-11-07T05:48:30.460Z,79.20
2022-11-07T05:50:58.202Z,79.10
2022-11-07T05:53:26.486Z,79.00
2022-11-07T05:55:54.406Z,78.80
2022-11-07T05:58:22.070Z,78.80
2022-11-07T06:00:49.309Z,78.70
2022-11-07T06:03:18.518Z,79.00
2022-11-07T06:05:46.631Z,78.90
2022-11-07T06:08:15.117Z,78.80
2022-11-07T06:10:43.931Z,78.50
2022-11-07T06:13:14.875Z,78.60
2022-11-07T06:15:44.109Z,78.30
2022-11-07T06:18:28.935Z,78.80
2022-11-07T06:20:55.887Z,74.90
2022-11-07T06:23:22.802Z,79.00
2022-11-07T06:25:51.214Z,79.00
2022-11-07T06:28:18.017Z,78.70
2022-11-07T06:30:45.222Z,79.00
2022-11-07T06:33:18.154Z,79.10
2022-11-07T06:35:46.617Z,78.90
2022-11-07T06:38:15.367Z,79.40
2022-11-07T06:40:42.937Z,79.30
2022-11-07T06:43:14.877Z,79.40
2022-11-07T06:45:44.367Z,79.10
2022-11-07T06:48:12.301Z,79.40
2022-11-07T06:50:40.147Z,80.00
2022-11-07T06:53:11.319Z,79.70
2022-11-07T06:55:41.277Z,79.40
2022-11-07T06:58:08.734Z,78.90
2022-11-07T07:00:37.325Z,80.40
2022-11-07T07:03:05.474Z,80.50
2022-11-07T07:05:36.588Z,80.90
2022-11-07T07:08:05.825Z,80.90
2022-11-07T07:10:39.118Z,81.00
2022-11-07T07:13:05.899Z,79.80
2022-11-07T07:15:47.831Z,81.30
2022-11-07T07:18:17.253Z,80.60
2022-11-07T07:20:44.068Z,80.70
2022-11-07T07:23:10.847Z,80.90
2022-11-07T07:25:37.609Z,81.00
2022-11-07T07:28:04.406Z,80.70
2022-11-07T07:30:31.380Z,81.30
2022-11-07T07:32:58.213Z,81.00
2022-11-07T07:35:25.137Z,81.00
2022-11-07T07:37:52.692Z,81.00
2022-11-07T07:40:20.614Z,80.90
2022-11-07T07:42:47.956Z,80.70
2022-11-07T07:45:16.336Z,81.00
2022-11-07T07:47:43.180Z,81.30
2022-11-07T07:50:12.033Z,81.80
2022-11-07T07:52:39.315Z,82.60
2022-11-07T07:55:11.680Z,85.00
2022-11-07T07:57:44.601Z,86.60
2022-11-07T08:00:12.449Z,82.70
2022-11-07T08:02:43.392Z,87.50
2022-11-07T08:05:13.101Z,87.30
2022-11-07T08:07:51.039Z,86.60
2022-11-07T08:10:40.753Z,77.80
2022-11-07T08:13:06.528Z,85.20
2022-11-07T08:15:33.406Z,84.30
2022-11-07T08:18:04.871Z,83.80
2022-11-07T08:20:32.256Z,79.30
2022-11-07T08:23:04.846Z,83.60
2022-11-07T08:25:31.882Z,79.00
2022-11-07T08:27:59.217Z,83.40
2022-11-07T08:30:27.000Z,82.50
2022-11-07T08:32:54.028Z,79.50
2022-11-07T08:35:20.929Z,78.20
2022-11-07T08:37:47.726Z,77.00
2022-11-07T08:40:14.562Z,74.10
2022-11-07T08:42:41.385Z,74.10
2022-11-07T08:45:09.053Z,72.70
2022-11-07T08:47:35.848Z,72.60
2022-11-07T08:50:02.662Z,72.30
2022-11-07T08:52:29.602Z,71.80
2022-11-07T08:54:56.529Z,72.10
2022-11-07T08:57:23.433Z,72.70
2022-11-07T08:59:50.223Z,71.60
2022-11-07T09:05:04.034Z,69.10
2022-11-07T09:07:30.873Z,68.30
2022-11-07T09:09:57.695Z,68.40
2022-11-07T09:12:25.430Z,68.40
2022-11-07T09:14:52.273Z,69.20
2022-11-07T09:17:19.067Z,69.00
2022-11-07T09:19:45.867Z,69.40
2022-11-07T09:22:12.747Z,69.00
2022-11-07T09:24:39.575Z,69.50
2022-11-07T09:27:06.366Z,69.60
2022-11-07T09:29:33.160Z,69.20
2022-11-07T09:32:11.942Z,68.90
2022-11-07T09:34:50.547Z,68.90
2022-11-07T09:37:21.847Z,68.20
2022-11-07T09:39:49.315Z,68.60
2022-11-07T09:43:01.036Z,68.40
2022-11-07T09:45:31.007Z,58.00
2022-11-07T09:48:07.285Z,67.80
2022-11-07T09:50:43.804Z,61.00
2022-11-07T09:53:20.330Z,62.10
2022-11-07T09:56:06.692Z,69.20
2022-11-07T09:58:42.123Z,60.90
2022-11-07T10:01:18.936Z,68.80
2022-11-07T10:04:18.025Z,63.30
2022-11-07T10:06:40.396Z,71.70
2022-11-07T10:09:35.059Z,66.50
2022-11-07T10:12:24.393Z,58.30
2022-11-07T10:15:10.314Z,56.60
2022-11-07T10:18:26.495Z,63.30
2022-11-07T10:21:37.196Z,48.40
2022-11-07T10:24:22.481Z,54.90
2022-11-07T10:26:49.447Z,52.20
2022-11-07T10:29:20.654Z,61.30
2022-11-07T10:32:03.103Z,61.10
2022-11-07T10:34:40.480Z,58.40
2022-11-07T10:37:09.130Z,59.30
2022-11-07T10:39:35.918Z,61.90
2022-11-07T10:42:19.758Z,62.60
2022-11-07T10:44:47.701Z,61.40
2022-11-07T10:47:26.470Z,63.40
2022-11-07T10:50:00.604Z,62.80
2022-11-07T10:52:29.496Z,58.00
2022-11-07T10:55:09.011Z,61.40
2022-11-07T10:57:36.506Z,56.00
2022-11-07T11:00:20.240Z,62.20
2022-11-07T11:02:52.385Z,61.30
2022-11-07T11:05:31.150Z,59.00
2022-11-07T11:08:15.890Z,52.90
2022-11-07T11:10:43.410Z,56.30
2022-11-07T11:13:34.141Z,60.90
2022-11-07T11:16:15.343Z,52.00
2022-11-07T11:18:57.806Z,51.60
2022-11-07T11:21:25.815Z,50.90
2022-11-07T11:23:54.395Z,60.00
2022-11-07T11:26:21.311Z,60.30
2022-11-07T11:29:01.712Z,60.40
2022-11-07T11:31:48.983Z,54.40
2022-11-07T11:34:37.971Z,53.30
2022-11-07T11:37:20.971Z,53.20
2022-11-07T11:39:55.621Z,57.10
2022-11-07T11:42:56.532Z,59.00
2022-11-07T11:45:41.143Z,54.50
2022-11-07T11:48:25.474Z,56.60
2022-11-07T11:51:12.187Z,55.50
2022-11-07T11:53:39.144Z,57.60
2022-11-07T11:56:11.276Z,60.50
2022-11-07T11:58:50.934Z,59.50
2022-11-07T12:01:23.786Z,61.50
2022-11-07T12:04:08.326Z,59.60
2022-11-07T12:06:40.406Z,53.10
2022-11-07T12:09:27.504Z,57.70
2022-11-07T12:12:45.044Z,57.90
2022-11-07T12:15:53.038Z,50.50
2022-11-07T12:18:34.759Z,59.00
2022-11-07T12:21:22.815Z,59.50
2022-11-07T12:24:33.054Z,54.10
2022-11-07T12:27:27.499Z,53.40
2022-11-07T12:30:24.025Z,56.40
2022-11-07T12:32:56.648Z,55.80
2022-11-07T12:35:35.580Z,59.90
2022-11-07T12:38:22.355Z,57.80
2022-11-07T12:41:03.993Z,55.20
2022-11-07T12:43:56.661Z,57.00
2022-11-07T12:46:53.923Z,60.90
2022-11-07T12:50:04.565Z,51.30
2022-11-07T12:53:10.604Z,50.60
2022-11-07T12:55:58.023Z,52.30
2022-11-07T12:58:32.415Z,55.40
2022-11-07T13:01:20.314Z,58.00
2022-11-07T13:04:21.410Z,59.50
2022-11-07T13:07:10.223Z,47.90
2022-11-07T13:09:57.199Z,52.00
2022-11-07T13:12:41.941Z,54.10
2022-11-07T13:15:12.994Z,53.20
2022-11-07T13:17:44.332Z,57.70
2022-11-07T13:20:30.635Z,58.10
2022-11-07T13:23:00.948Z,52.90
2022-11-07T13:25:34.876Z,57.60
2022-11-07T13:28:07.538Z,51.40
2022-11-07T13:30:38.377Z,57.10
2022-11-07T13:33:06.179Z,57.30
2022-11-07T13:35:38.896Z,51.20
2022-11-07T13:38:14.010Z,58.20
2022-11-07T13:40:50.832Z,55.80
2022-11-07T13:43:34.832Z,55.20
2022-11-07T13:46:06.927Z,57.00
2022-11-07T13:48:59.659Z,59.30
2022-11-07T13:51:37.377Z,53.60
2022-11-07T13:54:18.338Z,55.90
2022-11-07T13:56:53.978Z,54.50
2022-11-07T14:00:00.105Z,55.30
2022-11-07T14:02:30.656Z,51.40
2022-11-07T14:05:22.080Z,57.20
2022-11-07T14:08:00.358Z,53.20
2022-11-07T14:10:46.396Z,53.00
2022-11-07T14:13:39.664Z,54.60
2022-11-07T14:16:24.134Z,50.10
2022-11-07T14:19:07.434Z,51.80
2022-11-07T14:21:37.264Z,52.20
2022-11-07T14:24:21.085Z,56.10
2022-11-07T14:27:14.171Z,57.00
2022-11-07T14:29:56.406Z,52.20
2022-11-07T14:32:29.327Z,52.70
2022-11-07T14:35:00.179Z,56.70
2022-11-07T14:37:27.187Z,56.10
2022-11-07T14:39:54.094Z,57.20
2022-11-07T14:42:25.572Z,57.50
2022-11-07T14:44:56.196Z,56.00
2022-11-07T14:47:32.401Z,56.90
2022-11-07T14:50:01.817Z,55.70
2022-11-07T14:52:36.500Z,57.80
2022-11-07T14:55:08.321Z,56.70
2022-11-07T14:57:38.049Z,58.00
2022-11-07T15:00:08.158Z,58.10
2022-11-07T15:02:35.853Z,57.80
2022-11-07T15:05:10.706Z,58.40
2022-11-07T15:07:48.426Z,58.50
2022-11-07T15:10:33.568Z,56.20
2022-11-07T15:13:04.549Z,58.60
2022-11-07T15:15:36.835Z,58.70
2022-11-07T15:18:06.846Z,58.80
2022-11-07T15:20:39.843Z,59.30
2022-11-07T15:23:35.606Z,58.90
2022-11-07T15:26:08.096Z,57.50
2022-11-07T15:28:54.701Z,58.30
2022-11-07T15:31:28.092Z,56.40
2022-11-07T15:33:58.407Z,58.70
2022-11-07T15:36:26.031Z,59.90
2022-11-07T15:38:55.815Z,60.40
2022-11-07T15:41:22.674Z,60.60
2022-11-07T15:43:49.471Z,60.70
2022-11-07T15:46:50.375Z,60.50
2022-11-07T15:49:17.160Z,59.40
2022-11-07T15:51:44.117Z,61.00
2022-11-07T15:54:43.017Z,61.00
2022-11-07T16:00:23.206Z,60.90
2022-11-07T16:02:51.259Z,59.90
2022-11-07T16:05:18.817Z,61.70
2022-11-07T16:07:47.058Z,61.80
2022-11-07T16:10:26.711Z,61.90
2022-11-07T16:12:54.450Z,60.20
2022-11-07T16:15:25.708Z,62.80
2022-11-07T16:17:52.501Z,62.20
2022-11-07T16:20:23.222Z,62.50
2022-11-07T16:22:50.908Z,62.50
2022-11-07T16:25:23.176Z,60.50
2022-11-07T16:27:54.786Z,63.00
2022-11-07T16:30:22.434Z,63.00
2022-11-07T16:32:49.523Z,63.40
2022-11-07T16:35:16.622Z,63.50
2022-11-07T16:37:43.514Z,63.60
2022-11-07T16:40:18.696Z,63.80
2022-11-07T16:42:47.387Z,63.10
2022-11-07T16:45:17.908Z,64.00
2022-11-07T16:47:45.055Z,64.00
2022-11-07T16:50:16.941Z,64.30
2022-11-07T16:52:43.822Z,63.80
2022-11-07T16:55:16.523Z,64.70
2022-11-07T16:57:43.876Z,64.20
2022-11-07T17:00:23.727Z,65.00
2022-11-07T17:02:50.952Z,63.80
2022-11-07T17:05:18.129Z,65.20
2022-11-07T17:07:45.061Z,65.40
2022-11-07T17:10:17.535Z,65.50
2022-11-07T17:12:44.495Z,64.90
2022-11-07T17:15:11.507Z,65.80
2022-11-07T17:17:39.191Z,65.90
2022-11-07T17:20:07.580Z,66.10
2022-11-07T17:22:34.675Z,66.20
2022-11-07T17:25:01.574Z,66.40
2022-11-07T17:27:28.769Z,66.40
2022-11-07T17:29:55.707Z,66.50
2022-11-07T17:32:22.812Z,66.60
2022-11-07T17:35:10.668Z,66.70
2022-11-07T17:37:37.901Z,66.80
2022-11-07T17:40:06.526Z,66.90
2022-11-07T17:42:37.758Z,66.80
2022-11-07T17:45:06.243Z,67.40
2022-11-07T17:47:34.492Z,67.10
2022-11-07T17:50:02.285Z,67.00
2022-11-07T17:52:30.448Z,66.90
2022-11-07T17:54:57.523Z,66.80
2022-11-07T17:57:24.475Z,66.80
2022-11-07T17:59:51.741Z,66.70
2022-11-07T18:02:20.196Z,66.80
2022-11-07T18:04:47.239Z,66.80
2022-11-07T18:07:14.169Z,66.90
2022-11-07T18:09:41.568Z,67.00
2022-11-07T18:12:10.215Z,66.90
2022-11-07T18:14:37.494Z,67.00
2022-11-07T18:17:05.131Z,67.10
2022-11-07T18:19:32.136Z,67.20
2022-11-07T18:21:59.314Z,67.20
2022-11-07T18:24:26.433Z,67.30
2022-11-07T18:26:53.592Z,67.30
2022-11-07T18:29:20.552Z,67.40
2022-11-07T18:31:47.669Z,67.40
2022-11-07T18:34:14.942Z,67.40
2022-11-07T18:36:44.469Z,67.30
2022-11-07T18:39:22.828Z,67.30
2022-11-07T18:41:51.750Z,66.70
2022-11-07T18:44:19.392Z,67.30
2022-11-07T18:46:47.476Z,67.50
2022-11-07T18:49:16.232Z,67.60
2022-11-07T18:51:43.978Z,67.80
2022-11-07T18:54:13.723Z,67.90
2022-11-07T18:59:36.491Z,68.10
2022-11-07T19:02:03.362Z,68.30
2022-11-07T19:04:30.216Z,68.80
2022-11-07T19:06:57.457Z,68.30
2022-11-07T19:09:31.048Z,68.40
2022-11-07T19:12:00.803Z,67.90
2022-11-07T19:14:29.749Z,68.30
2022-11-07T19:16:57.655Z,68.50
2022-11-07T19:19:24.724Z,68.50
2022-11-07T19:21:51.574Z,68.60
2022-11-07T19:24:18.484Z,68.60
2022-11-07T19:26:45.495Z,68.70
2022-11-07T19:29:12.594Z,68.80
2022-11-07T19:31:39.483Z,68.80
2022-11-07T19:34:06.619Z,68.80
2022-11-07T19:36:33.924Z,68.90
2022-11-07T19:39:03.009Z,68.90
2022-11-07T19:41:29.963Z,68.90
2022-11-07T19:43:57.384Z,69.60
2022-11-07T19:46:24.585Z,69.20
2022-11-07T19:48:51.759Z,69.20
2022-11-07T19:51:23.115Z,69.10
2022-11-07T19:54:00.029Z,69.00
2022-11-07T19:56:30.860Z,68.40
2022-11-07T19:59:00.198Z,69.10
2022-11-07T20:01:31.746Z,67.70
2022-11-07T20:03:59.110Z,69.20
2022-11-07T20:06:31.893Z,69.30
2022-11-07T20:09:00.179Z,69.30
2022-11-07T20:11:27.457Z,69.40
2022-11-07T20:13:58.635Z,69.60
2022-11-07T20:16:29.054Z,69.60
2022-11-07T20:18:55.833Z,70.10
2022-11-07T20:21:23.649Z,69.70
2022-11-07T20:23:53.740Z,69.80
2022-11-07T20:26:24.459Z,69.80
2022-11-07T20:28:52.638Z,69.80
2022-11-07T20:31:29.855Z,69.80
2022-11-07T20:34:07.151Z,69.60
2022-11-07T20:36:34.813Z,69.70
2022-11-07T20:39:02.971Z,70.00
2022-11-07T20:41:29.929Z,70.20
2022-11-07T20:44:03.479Z,70.20
2022-11-07T20:46:33.700Z,70.30
2022-11-07T20:49:06.836Z,70.30
2022-11-07T20:51:34.070Z,70.20
2022-11-07T20:54:01.136Z,70.50
2022-11-07T20:56:29.013Z,70.60
2022-11-07T20:58:57.985Z,70.60
2022-11-07T21:01:37.885Z,70.60
2022-11-07T21:04:07.782Z,70.50
2022-11-07T21:06:35.811Z,70.60
2022-11-07T21:09:03.913Z,70.70
2022-11-07T21:11:30.953Z,70.80
2022-11-07T21:13:58.003Z,70.80
2022-11-07T21:16:26.507Z,71.00
2022-11-07T21:18:55.363Z,71.00
2022-11-07T21:21:27.351Z,71.10
2022-11-07T21:23:57.207Z,71.10
2022-11-07T21:26:30.696Z,71.20
2022-11-07T21:28:58.387Z,71.20
2022-11-07T21:31:29.756Z,71.30
2022-11-07T21:33:57.609Z,71.30
2022-11-07T21:36:28.561Z,71.50
2022-11-07T21:38:57.403Z,71.60
2022-11-07T21:41:25.209Z,71.80
2022-11-07T21:43:52.493Z,71.90
2022-11-07T21:46:34.305Z,72.00
2022-11-07T21:49:01.667Z,71.80
2022-11-07T21:51:31.441Z,72.10
2022-11-07T21:54:00.100Z,72.10
2022-11-07T21:56:36.297Z,72.30
2022-11-07T21:59:07.468Z,72.30
2022-11-07T22:01:36.213Z,72.30
2022-11-07T22:04:08.999Z,72.40
2022-11-07T22:06:40.476Z,72.40
2022-11-07T22:09:08.731Z,72.40
2022-11-07T22:11:35.888Z,71.20
2022-11-07T22:14:03.432Z,72.40
2022-11-07T22:16:30.530Z,72.50
2022-11-07T22:19:00.033Z,72.50
2022-11-07T22:21:27.431Z,72.50
2022-11-07T22:23:56.086Z,72.60
2022-11-07T22:26:25.918Z,72.50
2022-11-07T22:28:53.980Z,72.50
2022-11-07T22:31:23.625Z,72.50
2022-11-07T22:33:52.802Z,72.50
2022-11-07T22:36:21.200Z,72.40
2022-11-07T22:38:48.945Z,72.30
2022-11-07T22:41:20.082Z,72.20
2022-11-07T22:43:47.900Z,72.10
2022-11-07T22:46:18.776Z,72.20
2022-11-07T22:48:47.251Z,72.10
2022-11-07T22:51:20.500Z,70.60
2022-11-07T22:53:47.983Z,71.80
2022-11-07T22:56:19.554Z,72.00
2022-11-07T22:58:47.445Z,71.70
2022-11-07T23:01:22.494Z,72.10
2022-11-07T23:03:51.090Z,71.90
2022-11-07T23:06:19.141Z,72.30
2022-11-07T23:08:47.253Z,72.30
2022-11-07T23:14:16.689Z,72.00
2022-11-07T23:16:48.175Z,72.30
2022-11-07T23:19:18.188Z,72.30
2022-11-07T23:21:45.250Z,72.50
2022-11-07T23:24:12.806Z,72.20
2022-11-07T23:26:40.047Z,72.50
2022-11-07T23:29:25.225Z,72.60
2022-11-07T23:31:53.231Z,71.80
2022-11-07T23:34:22.027Z,72.60
2022-11-07T23:36:52.901Z,72.70
2022-11-07T23:39:22.075Z,72.50
2022-11-07T23:41:49.251Z,71.50
2022-11-07T23:44:16.284Z,72.50
2022-11-07T23:47:02.658Z,72.50
2022-11-07T23:49:48.626Z,72.60
2022-11-07T23:52:16.530Z,72.70
2022-11-07T23:55:01.929Z,72.70
2022-11-07T23:57:28.798Z,72.70
